createdAt,value
2023-02-03T00:02:03.667Z,9.99
2023-02-03T00:04:30.431Z,10.19
2023-02-03T00:06:58.004Z,10.47
2023-02-03T00:09:24.611Z,10.26
2023-02-03T00:11:51.501Z,10.19
2023-02-03T00:14:19.180Z,10.42
2023-02-03T00:16:45.718Z,10.79
2023-02-03T00:19:12.744Z,10.78
2023-02-03T00:21:41.020Z,11.04
2023-02-03T00:24:07.946Z,11.11
2023-02-03T00:26:34.905Z,10.66
2023-02-03T00:29:01.687Z,10.72
2023-02-03T00:31:28.220Z,10.81
2023-02-03T00:33:57.666Z,11.19
2023-02-03T00:36:25.199Z,10.96
2023-02-03T00:38:52.794Z,10.79
2023-02-03T00:41:21.043Z,10.79
2023-02-03T00:43:48.573Z,10.30
2023-02-03T00:46:16.109Z,10.60
2023-02-03T00:48:42.699Z,10.27
2023-02-03T00:51:09.226Z,10.32
2023-02-03T00:53:35.732Z,10.65
2023-02-03T00:56:02.678Z,11.04
2023-02-03T00:58:29.430Z,11.12
2023-02-03T01:00:57.197Z,10.96
2023-02-03T01:03:25.078Z,11.50
2023-02-03T01:05:51.896Z,10.60
2023-02-03T01:08:20.093Z,10.99
2023-02-03T01:10:47.000Z,11.35
2023-02-03T01:13:13.842Z,11.86
2023-02-03T01:15:47.033Z,11.33
2023-02-03T01:18:14.477Z,11.20
2023-02-03T01:20:42.700Z,11.09
2023-02-03T01:23:09.223Z,11.82
2023-02-03T01:25:36.525Z,11.70
2023-02-03T01:28:06.325Z,11.55
2023-02-03T01:30:33.025Z,11.53
2023-02-03T01:33:00.020Z,12.14
2023-02-03T01:35:26.840Z,12.17
2023-02-03T01:37:54.494Z,12.69
2023-02-03T01:40:21.684Z,12.19
2023-02-03T01:42:48.496Z,11.61
2023-02-03T01:45:16.690Z,11.74
2023-02-03T01:47:46.359Z,11.20
2023-02-03T01:50:16.054Z,11.34
2023-02-03T01:52:45.593Z,11.76
2023-02-03T01:55:14.650Z,12.26
2023-02-03T01:57:46.283Z,11.75
2023-02-03T02:00:14.213Z,11.86
2023-02-03T02:02:42.143Z,11.80
2023-02-03T02:05:18.974Z,11.44
2023-02-03T02:07:46.712Z,12.35
2023-02-03T02:10:14.621Z,12.22
2023-02-03T02:12:41.676Z,12.21
2023-02-03T02:15:10.142Z,12.47
2023-02-03T02:17:55.601Z,12.24
2023-02-03T02:20:22.502Z,11.92
2023-02-03T02:23:10.024Z,11.29
2023-02-03T02:26:03.385Z,11.15
2023-02-03T02:28:44.557Z,11.28
2023-02-03T02:31:17.180Z,12.17
2023-02-03T02:34:13.385Z,12.37
2023-02-03T02:36:42.883Z,12.86
2023-02-03T02:39:15.988Z,11.91
2023-02-03T02:41:45.568Z,11.96
2023-02-03T02:44:33.693Z,11.97
2023-02-03T02:47:07.937Z,11.23
2023-02-03T02:49:37.507Z,11.94
2023-02-03T02:52:05.546Z,11.36
2023-02-03T02:54:33.592Z,12.04
2023-02-03T02:57:02.201Z,11.83
2023-02-03T02:59:29.103Z,12.15
2023-02-03T03:01:57.150Z,12.77
2023-02-03T03:04:25.715Z,11.95
2023-02-03T03:06:58.137Z,11.73
2023-02-03T03:09:27.708Z,11.55
2023-02-03T03:11:59.656Z,12.07
2023-02-03T03:14:28.278Z,11.72
2023-02-03T03:16:59.913Z,11.93
2023-02-03T03:19:30.240Z,12.07
2023-02-03T03:21:58.222Z,12.14
2023-02-03T03:24:28.050Z,12.07
2023-02-03T03:27:00.636Z,12.17
2023-02-03T03:29:37.659Z,11.83
2023-02-03T03:32:04.373Z,11.74
2023-02-03T03:34:31.804Z,12.13
2023-02-03T03:37:05.912Z,11.86
2023-02-03T03:39:33.584Z,12.04
2023-02-03T03:42:03.960Z,12.32
2023-02-03T03:44:35.189Z,11.94
2023-02-03T03:47:07.758Z,11.68
2023-02-03T03:49:35.101Z,11.66
2023-02-03T03:52:04.241Z,12.20
2023-02-03T03:54:32.795Z,11.81
2023-02-03T03:57:02.650Z,12.01
2023-02-03T03:59:31.962Z,11.68
2023-02-03T04:02:04.840Z,11.03
2023-02-03T04:04:33.183Z,11.52
2023-02-03T04:07:00.062Z,11.57
2023-02-03T04:09:29.100Z,11.86
2023-02-03T04:12:02.261Z,11.78
2023-02-03T04:14:41.095Z,11.44
2023-02-03T04:17:10.761Z,11.58
2023-02-03T04:19:37.849Z,11.45
2023-02-03T04:22:04.671Z,10.96
2023-02-03T04:24:37.775Z,11.74
2023-02-03T04:27:12.836Z,11.79
2023-02-03T04:29:47.747Z,11.11
2023-02-03T04:32:27.005Z,12.07
2023-02-03T04:34:53.899Z,11.00
2023-02-03T04:37:21.239Z,11.45
2023-02-03T04:39:47.728Z,12.10
2023-02-03T04:42:14.556Z,12.29
2023-02-03T04:44:41.454Z,11.63
2023-02-03T04:47:08.289Z,11.74
2023-02-03T04:49:34.848Z,11.62
2023-02-03T04:52:02.231Z,11.15
2023-02-03T04:54:28.767Z,11.81
2023-02-03T04:56:55.799Z,12.02
2023-02-03T04:59:22.713Z,11.51
2023-02-03T05:01:50.025Z,11.66
2023-02-03T05:04:17.140Z,12.21
2023-02-03T05:06:43.967Z,11.44
2023-02-03T05:09:11.369Z,11.34
2023-02-03T05:11:38.554Z,11.24
2023-02-03T05:14:05.796Z,11.55
2023-02-03T05:16:32.930Z,11.84
2023-02-03T05:19:00.813Z,11.53
2023-02-03T05:21:34.133Z,11.64
2023-02-03T05:24:01.715Z,12.09
2023-02-03T05:26:28.798Z,11.26
2023-02-03T05:28:58.437Z,11.55
2023-02-03T05:31:24.951Z,11.90
2023-02-03T05:33:54.377Z,10.74
2023-02-03T05:36:26.377Z,11.32
2023-02-03T05:38:55.662Z,11.80
2023-02-03T05:42:00.957Z,11.24
2023-02-03T05:44:31.108Z,11.42
2023-02-03T05:46:59.406Z,11.67
2023-02-03T05:49:25.801Z,10.93
2023-02-03T05:51:53.442Z,11.85
2023-02-03T05:54:19.987Z,11.83
2023-02-03T05:56:47.713Z,11.56
2023-02-03T05:59:14.439Z,11.64
2023-02-03T06:01:40.939Z,11.75
2023-02-03T06:04:28.069Z,11.52
2023-02-03T06:06:56.153Z,11.95
2023-02-03T06:09:22.828Z,11.38
2023-02-03T06:11:49.857Z,11.67
2023-02-03T06:14:16.591Z,12.45
2023-02-03T06:16:43.699Z,11.95
2023-02-03T06:19:10.765Z,11.17
2023-02-03T06:21:40.999Z,12.22
2023-02-03T06:24:08.788Z,11.63
2023-02-03T06:26:35.579Z,11.64
2023-02-03T06:29:02.862Z,12.54
2023-02-03T06:31:29.765Z,11.58
2023-02-03T06:33:57.432Z,11.82
2023-02-03T06:36:24.467Z,12.03
2023-02-03T06:38:52.398Z,11.49
2023-02-03T06:41:28.752Z,11.02
2023-02-03T06:43:55.629Z,11.82
2023-02-03T06:46:25.991Z,11.37
2023-02-03T06:48:56.339Z,11.86
2023-02-03T06:51:25.357Z,12.39
2023-02-03T06:53:55.096Z,12.07
2023-02-03T06:56:24.926Z,11.70
2023-02-03T06:58:52.288Z,11.66
2023-02-03T07:01:23.005Z,11.71
2023-02-03T07:03:53.027Z,11.40
2023-02-03T07:06:24.416Z,11.78
2023-02-03T07:08:56.090Z,11.94
2023-02-03T07:11:29.242Z,11.67
2023-02-03T07:13:59.915Z,11.76
2023-02-03T07:16:27.737Z,11.84
2023-02-03T07:18:58.428Z,11.21
2023-02-03T07:21:30.283Z,11.74
2023-02-03T07:24:00.136Z,12.07
2023-02-03T07:26:32.346Z,11.32
2023-02-03T07:29:00.853Z,11.93
2023-02-03T07:31:27.774Z,11.50
2023-02-03T07:33:57.745Z,11.99
2023-02-03T07:36:28.200Z,11.19
2023-02-03T07:38:55.165Z,11.24
2023-02-03T07:41:30.533Z,11.42
2023-02-03T07:43:57.224Z,11.02
2023-02-03T07:46:30.739Z,11.19
2023-02-03T07:49:04.264Z,11.53
2023-02-03T07:51:30.924Z,10.80
2023-02-03T07:53:57.604Z,11.09
2023-02-03T07:56:25.965Z,10.54
2023-02-03T07:58:55.726Z,9.89
2023-02-03T08:01:28.477Z,9.90
2023-02-03T08:04:00.908Z,9.81
2023-02-03T08:06:36.455Z,9.49
2023-02-03T08:09:06.500Z,9.37
2023-02-03T08:11:39.536Z,9.47
2023-02-03T08:14:10.579Z,9.92
2023-02-03T08:16:43.051Z,9.46
2023-02-03T08:19:13.026Z,10.18
2023-02-03T08:21:43.370Z,10.55
2023-02-03T08:24:15.840Z,10.76
2023-02-03T08:26:45.410Z,10.61
2023-02-03T08:29:14.710Z,10.34
2023-02-03T08:31:44.769Z,10.91
2023-02-03T08:34:17.566Z,10.75
2023-02-03T08:36:50.517Z,10.91
2023-02-03T08:39:23.118Z,10.60
2023-02-03T08:41:49.582Z,10.50
2023-02-03T08:44:19.987Z,11.00
2023-02-03T08:46:52.250Z,11.45
2023-02-03T08:49:19.394Z,11.39
2023-02-03T08:51:49.327Z,10.41
2023-02-03T08:54:17.217Z,10.76
2023-02-03T08:56:49.523Z,10.48
2023-02-03T08:59:19.311Z,10.92
2023-02-03T09:01:48.535Z,10.12
2023-02-03T09:04:24.902Z,10.92
2023-02-03T09:06:54.790Z,10.85
2023-02-03T09:09:21.894Z,10.63
2023-02-03T09:11:48.679Z,10.79
2023-02-03T09:14:21.474Z,10.40
2023-02-03T09:16:52.244Z,10.58
2023-02-03T09:19:24.624Z,10.54
2023-02-03T09:21:58.338Z,10.92
2023-02-03T09:24:25.692Z,10.59
2023-02-03T09:27:01.959Z,10.76
2023-02-03T09:29:34.296Z,10.58
2023-02-03T09:32:09.067Z,10.27
2023-02-03T09:34:49.571Z,10.33
2023-02-03T09:37:23.547Z,10.12
2023-02-03T09:39:58.408Z,9.94
2023-02-03T09:42:51.123Z,10.37
2023-02-03T09:45:23.479Z,9.80
2023-02-03T09:47:55.814Z,10.77
2023-02-03T09:50:35.552Z,10.63
2023-02-03T09:53:10.740Z,10.58
2023-02-03T09:55:43.823Z,10.00
2023-02-03T09:58:15.877Z,10.70
2023-02-03T10:01:12.511Z,10.51
2023-02-03T10:03:40.681Z,10.54
2023-02-03T10:06:20.299Z,10.60
2023-02-03T10:08:56.506Z,9.94
2023-02-03T10:11:31.421Z,10.79
2023-02-03T10:13:58.026Z,10.13
2023-02-03T10:16:30.929Z,10.77
2023-02-03T10:19:00.939Z,10.13
2023-02-03T10:21:31.340Z,10.44
2023-02-03T10:23:59.389Z,10.29
2023-02-03T10:26:36.159Z,10.58
2023-02-03T10:29:10.011Z,10.24
2023-02-03T10:31:48.039Z,9.91
2023-02-03T10:34:15.990Z,10.79
2023-02-03T10:37:20.015Z,10.06
2023-02-03T10:39:57.538Z,10.13
2023-02-03T10:42:49.445Z,9.87
2023-02-03T10:45:22.933Z,10.30
2023-02-03T10:48:02.418Z,10.55
2023-02-03T10:50:35.420Z,10.41
2023-02-03T10:53:23.267Z,10.35
2023-02-03T10:56:13.624Z,9.78
2023-02-03T10:58:49.308Z,10.27
2023-02-03T11:01:17.880Z,10.24
2023-02-03T11:03:57.496Z,10.29
2023-02-03T11:06:30.933Z,10.55
2023-02-03T11:09:05.851Z,9.99
2023-02-03T11:11:41.881Z,10.75
2023-02-03T11:14:15.329Z,10.45
2023-02-03T11:16:49.274Z,9.96
2023-02-03T11:19:26.458Z,10.09
2023-02-03T11:21:57.260Z,10.07
2023-02-03T11:24:35.659Z,10.57
2023-02-03T11:27:07.129Z,9.72
2023-02-03T11:29:42.182Z,10.12
2023-02-03T11:32:23.810Z,10.44
2023-02-03T11:35:00.696Z,10.54
2023-02-03T11:37:36.970Z,10.58
2023-02-03T11:40:15.155Z,10.25
2023-02-03T11:42:48.404Z,10.50
2023-02-03T11:45:25.792Z,10.86
2023-02-03T11:47:55.970Z,10.93
2023-02-03T11:50:32.851Z,10.68
2023-02-03T11:53:28.863Z,10.56
2023-02-03T11:56:13.979Z,11.04
2023-02-03T11:58:52.726Z,11.05
2023-02-03T12:01:25.819Z,10.77
2023-02-03T12:04:07.658Z,10.84
2023-02-03T12:06:49.358Z,10.80
2023-02-03T12:09:27.531Z,10.63
2023-02-03T12:12:03.490Z,10.45
2023-02-03T12:14:45.353Z,11.05
2023-02-03T12:17:48.007Z,10.66
2023-02-03T12:20:21.072Z,10.69
2023-02-03T12:22:51.418Z,10.39
2023-02-03T12:25:33.350Z,10.52
2023-02-03T12:28:09.762Z,10.54
2023-02-03T12:30:51.504Z,11.02
2023-02-03T12:33:28.398Z,10.19
2023-02-03T12:36:15.808Z,10.54
2023-02-03T12:38:52.856Z,10.74
2023-02-03T12:41:40.793Z,10.39
2023-02-03T12:44:21.225Z,10.29
2023-02-03T12:47:22.445Z,10.52
2023-02-03T12:49:58.947Z,10.29
2023-02-03T12:52:35.530Z,10.43
2023-02-03T12:55:16.345Z,10.91
2023-02-03T12:58:03.549Z,10.63
2023-02-03T13:00:47.833Z,10.09
2023-02-03T13:03:29.828Z,10.29
2023-02-03T13:06:10.023Z,10.43
2023-02-03T13:08:42.929Z,10.04
2023-02-03T13:11:28.704Z,10.59
2023-02-03T13:14:19.919Z,10.64
2023-02-03T13:17:00.748Z,10.27
2023-02-03T13:19:40.384Z,10.66
2023-02-03T13:22:19.446Z,10.22
2023-02-03T13:24:57.359Z,10.68
2023-02-03T13:27:30.350Z,10.53
2023-02-03T13:30:07.281Z,10.38
2023-02-03T13:32:55.568Z,10.02
2023-02-03T13:35:34.156Z,10.41
2023-02-03T13:38:11.956Z,10.81
2023-02-03T13:41:03.853Z,10.54
2023-02-03T13:43:40.812Z,10.04
2023-02-03T13:46:20.602Z,10.14
2023-02-03T13:48:55.861Z,10.21
2023-02-03T13:51:40.781Z,10.22
2023-02-03T13:54:37.875Z,9.99
2023-02-03T13:57:09.910Z,10.51
2023-02-03T13:59:46.968Z,10.79
2023-02-03T14:02:31.003Z,10.12
2023-02-03T14:05:02.141Z,10.41
2023-02-03T14:07:38.187Z,10.50
2023-02-03T14:10:15.540Z,10.72
2023-02-03T14:12:54.412Z,10.38
2023-02-03T14:15:30.184Z,10.18
2023-02-03T14:18:17.084Z,9.97
2023-02-03T14:20:52.260Z,10.39
2023-02-03T14:23:26.584Z,10.29
2023-02-03T14:26:00.974Z,10.23
2023-02-03T14:28:42.142Z,10.00
2023-02-03T14:31:20.175Z,10.29
2023-02-03T14:34:03.618Z,9.82
2023-02-03T14:36:40.237Z,9.86
2023-02-03T14:39:20.075Z,9.68
2023-02-03T14:42:31.789Z,9.60
2023-02-03T14:44:58.965Z,10.02
2023-02-03T14:47:42.626Z,10.04
2023-02-03T14:50:28.519Z,9.46
2023-02-03T14:53:04.358Z,10.11
2023-02-03T14:55:46.072Z,10.23
2023-02-03T14:58:18.764Z,9.78
2023-02-03T15:00:50.019Z,10.00
2023-02-03T15:03:23.135Z,10.55
2023-02-03T15:05:55.004Z,9.68
2023-02-03T15:08:39.624Z,9.87
2023-02-03T15:11:27.517Z,9.88
2023-02-03T15:13:57.602Z,9.79
2023-02-03T15:16:28.947Z,10.38
2023-02-03T15:19:09.127Z,9.90
2023-02-03T15:21:44.723Z,10.88
2023-02-03T15:24:23.921Z,10.14
2023-02-03T15:26:56.834Z,10.41
2023-02-03T15:29:33.072Z,9.95
2023-02-03T15:32:10.085Z,9.95
2023-02-03T15:34:42.864Z,10.10
2023-02-03T15:37:29.656Z,10.11
2023-02-03T15:39:59.403Z,9.60
2023-02-03T15:42:38.914Z,9.34
2023-02-03T15:45:05.485Z,9.65
2023-02-03T15:47:45.347Z,10.32
2023-02-03T15:50:21.510Z,9.71
2023-02-03T15:52:51.156Z,9.59
2023-02-03T15:55:24.491Z,9.30
2023-02-03T15:57:51.882Z,9.99
2023-02-03T16:00:33.452Z,9.41
2023-02-03T16:03:02.080Z,9.31
2023-02-03T16:05:33.675Z,9.26
2023-02-03T16:08:20.973Z,9.07
2023-02-03T16:10:47.571Z,9.33
2023-02-03T16:13:24.568Z,8.91
2023-02-03T16:16:00.286Z,8.89
2023-02-03T16:18:26.792Z,9.06
2023-02-03T16:20:53.586Z,9.00
2023-02-03T16:23:22.772Z,8.68
2023-02-03T16:26:18.465Z,9.07
2023-02-03T16:29:14.597Z,8.79
2023-02-03T16:32:04.400Z,8.92
2023-02-03T16:34:53.573Z,8.72
2023-02-03T16:37:46.112Z,8.90
2023-02-03T16:40:32.775Z,9.08
2023-02-03T16:43:18.199Z,8.92
2023-02-03T16:46:04.840Z,9.05
2023-02-03T16:48:50.000Z,9.22
2023-02-03T16:51:18.156Z,8.86
2023-02-03T16:53:46.545Z,8.66
2023-02-03T16:56:14.216Z,8.89
2023-02-03T16:58:41.613Z,8.17
2023-02-03T17:01:10.148Z,9.02
2023-02-03T17:03:37.025Z,8.92
2023-02-03T17:06:05.016Z,8.72
2023-02-03T17:08:31.668Z,9.11
2023-02-03T17:11:09.167Z,9.77
2023-02-03T17:13:36.900Z,9.09
2023-02-03T17:16:09.087Z,8.74
2023-02-03T17:18:36.426Z,8.19
2023-02-03T17:21:08.365Z,8.33
2023-02-03T17:23:40.616Z,8.02
2023-02-03T17:26:16.380Z,8.74
2023-02-03T17:28:48.989Z,9.01
2023-02-03T17:31:24.097Z,8.96
2023-02-03T17:33:52.105Z,9.11
2023-02-03T17:36:20.021Z,8.76
2023-02-03T17:55:24.842Z,8.99
2023-02-03T17:57:53.017Z,8.98
2023-02-03T18:00:20.499Z,9.15
2023-02-03T18:02:51.216Z,9.16
2023-02-03T18:05:18.808Z,9.23
2023-02-03T18:10:19.356Z,9.22
2023-02-03T18:12:47.840Z,9.08
2023-02-03T18:15:15.890Z,8.89
2023-02-03T18:17:44.131Z,8.91
2023-02-03T18:20:11.648Z,8.69
2023-02-03T18:22:39.889Z,9.08
2023-02-03T18:25:07.742Z,8.97
2023-02-03T18:27:36.194Z,8.45
2023-02-03T18:30:03.528Z,9.06
2023-02-03T18:32:30.871Z,8.74
2023-02-03T18:34:57.748Z,8.31
2023-02-03T18:37:24.663Z,9.01
2023-02-03T18:39:53.000Z,8.55
2023-02-03T18:42:21.479Z,9.00
2023-02-03T18:44:49.523Z,9.25
2023-02-03T18:47:16.588Z,8.78
2023-02-03T18:49:43.878Z,8.53
2023-02-03T18:52:10.884Z,8.77
2023-02-03T18:54:37.746Z,9.19
2023-02-03T18:57:06.173Z,9.11
2023-02-03T18:59:33.274Z,8.94
2023-02-03T19:02:01.119Z,8.81
2023-02-03T19:04:27.854Z,9.02
2023-02-03T19:06:55.523Z,9.38
2023-02-03T19:09:23.734Z,8.75
2023-02-03T19:11:51.084Z,8.59
2023-02-03T19:14:18.455Z,9.15
2023-02-03T19:16:46.827Z,9.22
2023-02-03T19:19:14.305Z,9.12
2023-02-03T19:21:42.025Z,8.87
2023-02-03T19:24:15.060Z,9.37
2023-02-03T19:26:42.349Z,8.73
2023-02-03T19:29:10.403Z,8.78
2023-02-03T19:31:37.497Z,9.40
2023-02-03T19:34:05.829Z,9.16
2023-02-03T19:36:45.989Z,9.27
2023-02-03T19:39:13.527Z,8.30
2023-02-03T19:41:40.777Z,8.70
2023-02-03T19:44:08.941Z,9.38
2023-02-03T19:46:39.590Z,8.96
2023-02-03T19:49:06.738Z,8.90
2023-02-03T19:51:38.482Z,8.67
2023-02-03T19:54:07.266Z,9.10
2023-02-03T19:56:35.005Z,8.74
2023-02-03T19:59:01.564Z,8.37
2023-02-03T20:01:29.571Z,8.38
2023-02-03T20:04:00.462Z,8.34
2023-02-03T20:06:29.376Z,7.91
2023-02-03T20:08:59.258Z,8.11
2023-02-03T20:11:27.735Z,7.73
2023-02-03T20:13:56.339Z,7.37
2023-02-03T20:16:23.299Z,7.86
2023-02-03T20:18:50.862Z,7.71
2023-02-03T20:21:17.599Z,8.10
2023-02-03T20:23:46.285Z,7.95
2023-02-03T20:26:14.341Z,7.63
2023-02-03T20:28:41.687Z,7.01
2023-02-03T20:31:10.210Z,6.58
2023-02-03T20:33:37.551Z,6.69
2023-02-03T20:36:05.903Z,6.43
2023-02-03T20:38:32.948Z,6.29
2023-02-03T20:40:59.407Z,6.46
2023-02-03T20:43:27.797Z,6.56
2023-02-03T20:45:55.233Z,6.67
2023-02-03T20:48:23.924Z,6.53
2023-02-03T20:50:50.900Z,6.34
2023-02-03T20:53:17.877Z,6.19
2023-02-03T20:55:45.262Z,6.00
2023-02-03T20:58:32.542Z,6.10
2023-02-03T21:01:00.500Z,6.53
2023-02-03T21:03:46.678Z,6.36
2023-02-03T21:06:17.411Z,6.97
2023-02-03T21:08:44.781Z,6.59
2023-02-03T21:11:13.795Z,6.27
2023-02-03T21:13:43.570Z,6.67
2023-02-03T21:16:18.268Z,6.42
2023-02-03T21:18:49.967Z,7.20
2023-02-03T21:21:29.148Z,6.79
2023-02-03T21:23:56.282Z,6.33
2023-02-03T21:26:24.066Z,6.63
2023-02-03T21:28:53.255Z,6.84
2023-02-03T21:31:35.379Z,6.91
2023-02-03T21:34:03.551Z,6.87
2023-02-03T21:36:38.184Z,7.19
2023-02-03T21:39:24.397Z,6.90
2023-02-03T21:41:51.269Z,6.70
2023-02-03T21:44:38.137Z,6.90
2023-02-03T21:47:05.844Z,6.72
2023-02-03T21:49:34.535Z,6.64
2023-02-03T21:52:01.431Z,7.13
2023-02-03T21:54:34.064Z,6.95
2023-02-03T21:57:01.472Z,7.07
2023-02-03T21:59:37.948Z,6.43
2023-02-03T22:02:16.987Z,6.25
2023-02-03T22:04:44.049Z,5.96
2023-02-03T22:07:20.425Z,6.96
2023-02-03T22:09:50.244Z,6.43
2023-02-03T22:12:18.227Z,6.94
2023-02-03T22:14:45.170Z,6.52
2023-02-03T22:17:14.345Z,6.26
2023-02-03T22:19:42.621Z,6.89
2023-02-03T22:22:09.525Z,6.95
2023-02-03T22:24:36.466Z,6.79
2023-02-03T22:27:06.328Z,6.52
2023-02-03T22:29:33.447Z,6.97
2023-02-03T22:32:00.786Z,6.54
2023-02-03T22:34:31.217Z,7.58
2023-02-03T22:36:58.630Z,6.74
2023-02-03T22:39:25.733Z,7.01
2023-02-03T22:41:58.397Z,7.01
2023-02-03T22:44:28.557Z,7.15
2023-02-03T22:46:57.713Z,6.75
2023-02-03T22:49:24.423Z,7.03
2023-02-03T22:51:52.229Z,7.01
2023-02-03T22:54:20.594Z,6.58
2023-02-03T22:56:49.391Z,7.15
2023-02-03T22:59:17.331Z,6.58
2023-02-03T23:01:44.611Z,6.58
2023-02-03T23:04:11.364Z,6.46
2023-02-03T23:06:37.982Z,6.82
2023-02-03T23:09:05.105Z,6.77
2023-02-03T23:11:33.004Z,6.94
2023-02-03T23:13:59.638Z,7.24
2023-02-03T23:16:26.559Z,7.13
2023-02-03T23:18:53.487Z,6.84
2023-02-03T23:21:20.172Z,6.84
2023-02-03T23:23:48.135Z,7.34
2023-02-03T23:26:14.923Z,6.89
2023-02-03T23:28:41.924Z,7.18
2023-02-03T23:31:09.187Z,6.79
2023-02-03T23:33:36.956Z,6.35
2023-02-03T23:36:05.029Z,5.79
2023-02-03T23:38:33.383Z,6.92
2023-02-03T23:41:00.144Z,6.67
2023-02-03T23:43:27.049Z,6.91
2023-02-03T23:45:53.681Z,7.09
2023-02-03T23:48:20.060Z,6.49
2023-02-03T23:50:47.088Z,6.90
2023-02-03T23:53:14.595Z,6.46
2023-02-03T23:55:41.044Z,6.62
2023-02-03T23:58:07.606Z,6.65
